首页
METAR-TAF:

METAR-TAF

机场 :

科尔多瓦, 阿根廷

纬度: 31-19S, 经度: 064-13W, 海拔: 484米

当前天气观测

该预报发布于1小时和8分钟前的14:00 UTC
风速5节,风向,在东转东北东南之间变化
温度 28°C
湿度 45%
气压 1014 hPa
能见度10公里或以上
少量云层高于2500英尺, 塔状积云.

METAR: SACO 201400Z 08005KT 060V130 9999 FEW025TCU 28/15 Q1014

时间: 12:08 (15:08 UTC)

预报

该预报发布于4小时和8分钟前的11:00 UTC
预报有效从20日的 12点(UTC)到 21日的 12点(UTC)
风速5节,风向西转西北
能见度10公里或以上
散云层高于3000英尺
成为
从 20日的 14点(UTC)到 20日的 17点(UTC)
风速10节,风向东北
能见度10公里或以上
散云层高于3000英尺
少量云层高于4000英尺, 积雨云.

TAF: SACO 201100Z 2012/2112 29005KT 9999 SCT030 TX32/2018Z TN16/2110Z BECMG 2014/2017 05010KT 9999 SCT030 FEW040CB

超过4000个机场的气象观测和天气预报(METAR&TAF报告)。

可查询的气象台以黄色和红色小点在地图上表示。

将鼠标移到小点上方,可查看气象台名称。

然后点击查看天气观测和预报。

如需切换地图:点击带黑十字的绿色按钮放大地图;点击带横线的绿色按钮缩小地图;或者点击绿色箭头查看邻近地区的地图。


METAR-TAF: